This is the latest recevied weather packets stored in our database for station/object KO6MEX-13. If no packets are shown the sender has not sent any weather packets the latest 1 day(s).
| Time | Temp. | Humidity | Pressure | Rain* | Wind** | Luminosity | Snow |
|---|---|---|---|---|---|---|---|
| 1778023403 | 18.89° C | 60% | 1018.5 hPa | 0 mm | 0.45 m/s, 132° | 524 W/m² | - |
| 1778023100 | 18.33° C | 62% | 1018.6 hPa | 0 mm | 0.89 m/s, 218° | 318 W/m² | - |
| 1778022798 | 18.33° C | 63% | 1018.3 hPa | 0 mm | 1.79 m/s, 242° | 274 W/m² | - |
| 1778022496 | 18.33° C | 62% | 1018.2 hPa | 0 mm | 2.24 m/s, 225° | 374 W/m² | - |
| 1778022193 | 18.89° C | 60% | 1018.4 hPa | 0 mm | 2.24 m/s, 216° | 259 W/m² | - |
| 1778021889 | 18.33° C | 62% | 1018.7 hPa | 0 mm | 1.79 m/s, 264° | 451 W/m² | - |
| 1778021586 | 18.33° C | 62% | 1018.7 hPa | 0 mm | 2.24 m/s, 207° | 429 W/m² | - |
| 1778021281 | 18.33° C | 61% | 1018.4 hPa | 0 mm | 3.13 m/s, 239° | 660 W/m² | - |
| 1778020979 | 18.33° C | 61% | 1018.5 hPa | 0 mm | 3.58 m/s, 185° | 565 W/m² | - |
| 1778020677 | 18.33° C | 60% | 1018.7 hPa | 0 mm | 2.24 m/s, 189° | 465 W/m² | - |
| 1778020373 | 18.33° C | 60% | 1018.7 hPa | 0 mm | 3.13 m/s, 242° | 678 W/m² | - |
| 1778020069 | 18.33° C | 59% | 1018.9 hPa | 0 mm | 2.24 m/s, 219° | 694 W/m² | - |
| 1778019765 | 18.89° C | 58% | 1018.8 hPa | 0 mm | 3.58 m/s, 207° | 628 W/m² | - |
| 1778019463 | 18.33° C | 60% | 1019 hPa | 0 mm | 3.58 m/s, 275° | 365 W/m² | - |
| 1778019159 | 18.89° C | 58% | 1018.8 hPa | 0 mm | 4.02 m/s, 199° | 480 W/m² | - |
| 1778018856 | 20° C | 57% | 1018.8 hPa | 0 mm | 3.13 m/s, 229° | 685 W/m² | - |
| 1778018553 | 20° C | 55% | 1018.9 hPa | 0 mm | 0 m/s | 729 W/m² | - |
| 1778018252 | 19.44° C | 55% | 1018.9 hPa | 0 mm | 0.89 m/s, 62° | 753 W/m² | - |
| 1778017949 | 18.89° C | 55% | 1019.2 hPa | 0 mm | 0 m/s | 310 W/m² | - |
| 1778017646 | 18.89° C | 55% | 1019 hPa | 0 mm | 3.13 m/s, 267° | 521 W/m² | - |
| 1778017344 | 18.89° C | 55% | 1019 hPa | 0 mm | 3.13 m/s, 201° | 718 W/m² | - |
| 1778017041 | 18.33° C | 58% | 1019.1 hPa | 0 mm | 2.24 m/s, 260° | 534 W/m² | - |
| 1778016738 | 18.33° C | 59% | 1019.1 hPa | 0 mm | 3.58 m/s, 270° | 529 W/m² | - |
| 1778016434 | 17.78° C | 60% | 1019.3 hPa | 0 mm | 0.89 m/s, 264° | 645 W/m² | - |
| 1778016132 | 17.78° C | 60% | 1019.1 hPa | 0 mm | 2.24 m/s, 202° | 354 W/m² | - |
* Rain latest hour (hover to see other rain measurements)
** Current wind speed in m/s (hover to see current wind gust speed)